createdAt,value
2022-08-30T00:02:00.793Z,2.73
2022-08-30T00:04:27.987Z,3.20
2022-08-30T00:06:54.945Z,3.40
2022-08-30T00:09:22.055Z,2.47
2022-08-30T00:11:52.036Z,4.23
2022-08-30T00:14:20.298Z,4.97
2022-08-30T00:16:47.312Z,5.17
2022-08-30T00:19:14.782Z,6.20
2022-08-30T00:21:41.764Z,5.80
2022-08-30T00:24:08.938Z,6.13
2022-08-30T00:26:35.923Z,5.30
2022-08-30T00:29:03.908Z,5.70
2022-08-30T00:31:30.941Z,5.27
2022-08-30T00:33:58.015Z,5.10
2022-08-30T00:36:24.984Z,4.40
2022-08-30T00:38:51.937Z,4.43
2022-08-30T00:41:18.922Z,4.93
2022-08-30T00:43:45.902Z,5.20
2022-08-30T00:46:12.982Z,6.10
2022-08-30T00:48:45.168Z,4.93
2022-08-30T00:51:14.508Z,5.97
2022-08-30T00:53:49.141Z,5.33
2022-08-30T00:56:17.861Z,5.17
2022-08-30T00:58:52.324Z,5.30
2022-08-30T01:01:20.645Z,3.63
2022-08-30T01:03:48.898Z,3.67
2022-08-30T01:06:17.037Z,3.17
2022-08-30T01:08:47.234Z,2.23
2022-08-30T01:11:21.548Z,2.00
2022-08-30T01:13:51.278Z,1.70
2022-08-30T01:16:19.121Z,1.73
2022-08-30T01:18:47.227Z,3.17
2022-08-30T01:22:00.096Z,2.93
2022-08-30T01:24:27.925Z,2.43
2022-08-30T01:26:55.834Z,2.23
2022-08-30T01:29:25.712Z,1.47
2022-08-30T01:31:52.749Z,2.57
2022-08-30T01:34:19.917Z,1.80
2022-08-30T01:36:49.316Z,1.90
2022-08-30T01:39:18.804Z,1.50
2022-08-30T01:41:46.280Z,5.27
2022-08-30T01:44:14.759Z,5.60
2022-08-30T01:46:47.121Z,4.70
2022-08-30T01:49:23.108Z,5.33
2022-08-30T01:52:00.713Z,7.40
2022-08-30T01:54:36.956Z,7.20
2022-08-30T01:57:09.953Z,5.73
2022-08-30T01:59:39.703Z,3.90
2022-08-30T02:02:08.313Z,3.40
2022-08-30T02:04:36.715Z,2.27
2022-08-30T02:07:05.281Z,2.17
2022-08-30T02:09:32.594Z,3.10
2022-08-30T02:11:59.647Z,3.10
2022-08-30T02:14:27.491Z,2.00
2022-08-30T02:16:54.603Z,4.43
2022-08-30T02:19:21.673Z,3.13
2022-08-30T02:21:48.622Z,2.30
2022-08-30T02:24:15.760Z,2.10
2022-08-30T02:26:42.869Z,2.40
2022-08-30T02:29:09.874Z,3.57
2022-08-30T02:31:36.857Z,3.37
2022-08-30T02:34:04.417Z,2.43
2022-08-30T02:36:31.997Z,2.50
2022-08-30T02:38:59.091Z,4.23
2022-08-30T02:41:26.161Z,4.50
2022-08-30T02:43:58.325Z,4.67
2022-08-30T02:46:26.650Z,6.83
2022-08-30T02:48:56.129Z,6.43
2022-08-30T02:51:23.294Z,6.40
2022-08-30T02:53:50.390Z,7.93
2022-08-30T02:56:17.391Z,7.80
2022-08-30T02:58:45.161Z,5.63
2022-08-30T03:01:15.644Z,5.60
2022-08-30T03:03:46.910Z,6.23
2022-08-30T03:06:15.021Z,6.20
2022-08-30T03:08:42.700Z,8.10
2022-08-30T03:11:10.181Z,7.17
2022-08-30T03:13:37.786Z,4.87
2022-08-30T03:16:05.097Z,2.60
2022-08-30T03:18:33.534Z,4.13
2022-08-30T03:21:00.765Z,2.80
2022-08-30T03:23:27.769Z,4.87
2022-08-30T03:25:54.775Z,4.10
2022-08-30T03:28:21.770Z,3.17
2022-08-30T03:30:48.726Z,3.80
2022-08-30T03:33:16.003Z,4.37
2022-08-30T03:35:45.601Z,5.33
2022-08-30T03:38:12.688Z,4.47
2022-08-30T03:40:40.023Z,4.67
2022-08-30T03:43:07.472Z,6.00
2022-08-30T03:45:34.853Z,5.27
2022-08-30T03:48:02.467Z,7.20
2022-08-30T03:50:30.890Z,4.80
2022-08-30T03:53:00.982Z,4.67
2022-08-30T03:55:29.853Z,5.17
2022-08-30T03:57:57.470Z,5.87
2022-08-30T04:00:25.962Z,3.23
2022-08-30T04:02:52.942Z,2.47
2022-08-30T04:05:20.982Z,2.10
2022-08-30T04:07:47.991Z,2.20
2022-08-30T04:10:15.043Z,2.53
2022-08-30T04:12:45.068Z,2.97
2022-08-30T04:15:15.891Z,2.40
2022-08-30T04:17:43.142Z,1.93
2022-08-30T04:20:11.061Z,3.00
2022-08-30T04:22:38.104Z,2.60
2022-08-30T04:25:07.164Z,2.83
2022-08-30T04:27:34.919Z,3.23
2022-08-30T04:30:04.964Z,3.10
2022-08-30T04:32:34.949Z,7.50
2022-08-30T04:35:01.967Z,3.30
2022-08-30T04:37:29.064Z,4.37
2022-08-30T04:40:00.692Z,4.20
2022-08-30T04:42:32.123Z,5.03
2022-08-30T04:45:05.512Z,7.60
2022-08-30T04:47:33.001Z,7.37
2022-08-30T04:50:00.046Z,7.07
2022-08-30T04:52:28.547Z,7.50
2022-08-30T04:54:57.936Z,7.90
2022-08-30T04:57:27.181Z,5.30
2022-08-30T04:59:54.723Z,5.53
2022-08-30T05:02:22.196Z,7.20
2022-08-30T05:05:08.366Z,6.20
2022-08-30T05:07:35.835Z,5.33
2022-08-30T05:10:09.072Z,4.63
2022-08-30T05:12:38.767Z,6.00
2022-08-30T05:15:07.100Z,6.23
2022-08-30T05:17:34.114Z,5.93
2022-08-30T05:20:02.473Z,4.80
2022-08-30T05:22:29.481Z,5.83
2022-08-30T05:24:56.467Z,4.90
2022-08-30T05:27:23.421Z,6.93
2022-08-30T05:29:50.495Z,3.83
2022-08-30T05:32:19.005Z,6.43
2022-08-30T05:34:49.164Z,5.83
2022-08-30T05:37:18.456Z,7.00
2022-08-30T05:39:51.478Z,7.07
2022-08-30T05:42:20.029Z,7.43
2022-08-30T05:44:51.221Z,8.57
2022-08-30T05:47:18.710Z,4.73
2022-08-30T05:49:45.721Z,4.43
2022-08-30T05:52:15.395Z,4.73
2022-08-30T05:54:42.653Z,5.73
2022-08-30T05:57:09.656Z,4.53
2022-08-30T05:59:37.197Z,4.82
2022-08-30T06:02:05.180Z,5.80
2022-08-30T06:04:32.392Z,5.40
2022-08-30T06:06:59.391Z,4.30
2022-08-30T06:09:26.367Z,5.13
2022-08-30T06:11:53.447Z,5.27
2022-08-30T06:14:20.829Z,5.30
2022-08-30T06:16:48.644Z,5.37
2022-08-30T06:19:16.719Z,4.73
2022-08-30T06:21:48.989Z,6.10
2022-08-30T06:24:16.759Z,5.03
2022-08-30T06:26:46.918Z,4.47
2022-08-30T06:29:18.792Z,6.80
2022-08-30T06:31:46.014Z,6.90
2022-08-30T06:34:16.513Z,5.43
2022-08-30T06:36:43.554Z,4.80
2022-08-30T06:39:11.177Z,5.50
2022-08-30T06:41:41.210Z,5.53
2022-08-30T06:44:08.748Z,4.22
2022-08-30T06:46:38.919Z,5.63
2022-08-30T06:49:11.201Z,5.97
2022-08-30T06:51:39.960Z,6.60
2022-08-30T06:54:11.972Z,7.22
2022-08-30T06:56:55.230Z,4.80
2022-08-30T06:59:25.454Z,5.60
2022-08-30T07:01:55.217Z,7.13
2022-08-30T07:04:22.253Z,5.60
2022-08-30T07:06:49.267Z,5.38
2022-08-30T07:09:16.265Z,4.53
2022-08-30T07:11:43.437Z,4.10
2022-08-30T07:14:10.766Z,3.60
2022-08-30T07:16:37.767Z,4.00
2022-08-30T07:19:06.579Z,3.50
2022-08-30T07:21:46.071Z,3.73
2022-08-30T07:24:13.633Z,4.17
2022-08-30T07:26:48.825Z,3.50
2022-08-30T07:29:17.812Z,3.73
2022-08-30T07:31:45.539Z,3.60
2022-08-30T07:34:12.561Z,4.53
2022-08-30T07:36:40.094Z,4.72
2022-08-30T07:39:07.747Z,4.63
2022-08-30T07:41:38.801Z,4.10
2022-08-30T07:44:08.203Z,3.05
2022-08-30T07:46:39.052Z,2.90
2022-08-30T07:49:11.003Z,2.42
2022-08-30T07:51:40.010Z,2.35
2022-08-30T07:54:07.421Z,1.97
2022-08-30T07:56:35.200Z,1.73
2022-08-30T07:59:02.163Z,1.52
2022-08-30T08:01:29.231Z,1.63
2022-08-30T08:03:56.308Z,1.48
2022-08-30T08:06:24.605Z,2.73
2022-08-30T08:08:53.596Z,1.90
2022-08-30T08:11:29.345Z,1.30
2022-08-30T08:13:58.733Z,2.38
2022-08-30T08:16:33.092Z,1.60
2022-08-30T08:19:00.594Z,1.40
2022-08-30T08:21:28.675Z,1.40
2022-08-30T08:23:56.076Z,2.30
2022-08-30T08:26:23.424Z,3.97
2022-08-30T08:28:50.460Z,2.45
2022-08-30T08:31:33.391Z,1.85
2022-08-30T08:34:05.441Z,1.45
2022-08-30T08:36:34.427Z,1.15
2022-08-30T08:39:03.539Z,1.00
2022-08-30T08:42:48.905Z,1.02
2022-08-30T08:45:56.428Z,0.63
2022-08-30T08:49:00.006Z,0.70
2022-08-30T08:51:52.272Z,0.70
2022-08-30T08:54:38.739Z,0.63
2022-08-30T08:57:05.836Z,0.52
2022-08-30T08:59:33.025Z,0.50
2022-08-30T09:02:08.177Z,0.57
2022-08-30T09:04:39.316Z,0.40
2022-08-30T09:07:24.331Z,0.57
2022-08-30T09:09:51.938Z,0.70
2022-08-30T09:12:19.440Z,0.50
2022-08-30T09:14:55.913Z,0.40
2022-08-30T09:17:23.681Z,0.35
2022-08-30T09:19:54.046Z,0.30
2022-08-30T09:22:42.507Z,0.60
2022-08-30T09:25:13.412Z,0.30
2022-08-30T09:27:47.408Z,0.50
2022-08-30T09:30:25.946Z,0.40
2022-08-30T09:32:59.481Z,0.50
2022-08-30T09:35:38.837Z,0.30
2022-08-30T09:38:35.789Z,0.45
2022-08-30T09:41:38.434Z,0.80
2022-08-30T09:44:16.931Z,0.30
2022-08-30T09:47:01.148Z,0.50
2022-08-30T09:49:44.376Z,0.50
2022-08-30T09:52:49.934Z,0.60
2022-08-30T09:55:55.806Z,0.50
2022-08-30T09:59:04.332Z,0.40
2022-08-30T10:01:43.547Z,0.50
2022-08-30T10:04:58.918Z,0.40
2022-08-30T10:07:58.849Z,0.43
2022-08-30T10:10:45.234Z,0.52
2022-08-30T10:14:05.636Z,0.90
2022-08-30T10:17:12.764Z,1.25
2022-08-30T10:20:03.693Z,0.50
2022-08-30T10:22:48.696Z,0.65
2022-08-30T10:25:44.074Z,0.50
2022-08-30T10:28:16.946Z,0.43
2022-08-30T10:30:59.600Z,0.60
2022-08-30T10:33:39.086Z,0.70
2022-08-30T10:36:12.377Z,0.70
2022-08-30T10:38:52.188Z,1.85
2022-08-30T10:41:50.670Z,0.70
2022-08-30T10:44:37.461Z,0.75
2022-08-30T10:47:39.361Z,0.70
2022-08-30T10:50:21.351Z,0.57
2022-08-30T10:53:00.194Z,0.70
2022-08-30T10:55:35.461Z,0.57
2022-08-30T10:58:06.370Z,0.70
2022-08-30T11:01:18.979Z,0.50
2022-08-30T11:04:23.705Z,0.65
2022-08-30T11:08:08.308Z,1.13
2022-08-30T11:11:15.986Z,1.02
2022-08-30T11:13:44.920Z,0.47
2022-08-30T11:16:19.040Z,0.60
2022-08-30T11:18:56.581Z,0.55
2022-08-30T11:21:36.192Z,0.70
2022-08-30T11:24:12.174Z,0.50
2022-08-30T11:26:45.951Z,0.40
2022-08-30T11:29:44.628Z,0.65
2022-08-30T11:32:17.177Z,0.57
2022-08-30T11:34:47.097Z,0.70
2022-08-30T11:37:52.201Z,0.80
2022-08-30T11:40:24.604Z,0.60
2022-08-30T11:42:55.610Z,0.80
2022-08-30T11:45:24.752Z,0.77
2022-08-30T11:48:10.052Z,0.80
2022-08-30T11:51:07.667Z,0.70
2022-08-30T11:54:26.964Z,0.73
2022-08-30T11:57:27.726Z,0.73
2022-08-30T12:00:37.256Z,0.70
2022-08-30T12:03:16.401Z,1.15
2022-08-30T12:05:44.224Z,1.00
2022-08-30T12:08:20.333Z,1.20
2022-08-30T12:11:02.319Z,1.83
2022-08-30T12:13:36.903Z,1.20
2022-08-30T12:16:25.062Z,3.78
2022-08-30T12:19:04.882Z,1.98
2022-08-30T12:21:44.977Z,1.20
2022-08-30T12:24:43.591Z,1.00
2022-08-30T12:27:33.218Z,1.35
2022-08-30T12:30:08.701Z,1.33
2022-08-30T12:32:48.765Z,1.42
2022-08-30T12:35:28.018Z,1.13
2022-08-30T12:38:12.283Z,1.20
2022-08-30T12:41:05.681Z,1.13
2022-08-30T12:43:47.612Z,0.98
2022-08-30T12:46:18.083Z,0.90
2022-08-30T12:48:45.964Z,1.00
2022-08-30T12:51:29.735Z,1.10
2022-08-30T12:54:27.881Z,1.00
2022-08-30T12:57:19.171Z,0.93
2022-08-30T13:00:01.685Z,0.80
2022-08-30T13:02:52.417Z,0.93
2022-08-30T13:05:44.996Z,1.23
2022-08-30T13:08:57.602Z,1.15
2022-08-30T13:11:29.642Z,1.00
2022-08-30T13:14:32.834Z,1.10
2022-08-30T13:17:29.507Z,0.90
2022-08-30T13:20:07.723Z,1.20
2022-08-30T13:23:09.910Z,1.20
2022-08-30T13:25:40.022Z,1.30
2022-08-30T13:28:07.981Z,1.23
2022-08-30T13:30:35.754Z,1.25
2022-08-30T13:33:03.161Z,1.77
2022-08-30T13:35:31.241Z,1.63
2022-08-30T13:38:01.503Z,1.50
2022-08-30T13:40:28.574Z,1.27
2022-08-30T13:42:57.118Z,1.40
2022-08-30T13:45:41.450Z,1.50
2022-08-30T13:48:11.344Z,1.45
2022-08-30T13:50:39.077Z,1.50
2022-08-30T13:53:06.233Z,1.65
2022-08-30T13:55:34.032Z,1.50
2022-08-30T13:58:02.068Z,1.40
2022-08-30T14:00:33.492Z,1.45
2022-08-30T14:03:03.470Z,1.80
2022-08-30T14:06:21.905Z,1.45
2022-08-30T14:08:49.018Z,1.65
2022-08-30T14:11:21.236Z,1.38
2022-08-30T14:16:46.774Z,1.10
2022-08-30T14:19:16.292Z,1.45
2022-08-30T14:21:46.659Z,1.27
2022-08-30T14:24:20.081Z,1.40
2022-08-30T14:26:52.019Z,1.13
2022-08-30T14:29:24.724Z,1.30
2022-08-30T14:31:54.889Z,1.10
2022-08-30T14:34:23.146Z,1.23
2022-08-30T14:36:52.576Z,1.33
2022-08-30T14:39:26.285Z,1.20
2022-08-30T14:41:55.808Z,1.20
2022-08-30T14:44:24.983Z,1.20
2022-08-30T14:46:55.578Z,1.10
2022-08-30T14:49:23.617Z,1.08
2022-08-30T14:51:51.953Z,1.00
2022-08-30T14:54:29.166Z,1.08
2022-08-30T14:56:56.822Z,1.30
2022-08-30T14:59:25.461Z,1.23
2022-08-30T15:01:53.115Z,1.38
2022-08-30T15:04:21.702Z,2.17
2022-08-30T15:06:50.975Z,1.30
2022-08-30T15:09:23.867Z,1.00
2022-08-30T15:11:58.818Z,0.90
2022-08-30T15:14:28.170Z,1.20
2022-08-30T15:16:56.165Z,1.00
2022-08-30T15:19:23.804Z,0.95
2022-08-30T15:21:51.430Z,1.13
2022-08-30T15:24:29.920Z,1.30
2022-08-30T15:26:59.518Z,1.00
2022-08-30T15:29:30.543Z,0.70
2022-08-30T15:32:00.995Z,0.90
2022-08-30T15:34:28.946Z,0.70
2022-08-30T15:36:57.413Z,0.90
2022-08-30T15:39:24.893Z,0.90
2022-08-30T15:41:55.967Z,0.90
2022-08-30T15:44:24.301Z,1.00
2022-08-30T15:46:51.440Z,0.80
2022-08-30T15:49:23.175Z,0.65
2022-08-30T15:51:54.123Z,0.70
2022-08-30T15:54:23.834Z,0.70
2022-08-30T15:56:58.798Z,0.80
2022-08-30T15:59:31.019Z,0.80
2022-08-30T16:01:58.704Z,0.60
2022-08-30T16:04:26.601Z,0.70
2022-08-30T16:07:03.747Z,0.60
2022-08-30T16:09:32.799Z,0.70
2022-08-30T16:12:02.268Z,0.70
2022-08-30T16:14:32.638Z,0.70
2022-08-30T16:17:09.932Z,0.70
2022-08-30T16:19:38.220Z,0.73
2022-08-30T16:22:12.918Z,0.68
2022-08-30T16:24:43.846Z,0.80
2022-08-30T16:27:14.031Z,0.80
2022-08-30T16:29:41.353Z,1.15
2022-08-30T16:32:08.738Z,0.65
2022-08-30T16:34:35.869Z,0.77
2022-08-30T16:37:04.245Z,1.98
2022-08-30T16:39:32.716Z,0.82
2022-08-30T16:42:03.146Z,0.88
2022-08-30T16:44:30.279Z,1.02
2022-08-30T16:46:57.447Z,0.75
2022-08-30T16:49:25.555Z,0.90
2022-08-30T16:51:56.157Z,1.20
2022-08-30T16:54:23.629Z,1.10
2022-08-30T16:56:51.628Z,1.50
2022-08-30T16:59:19.291Z,5.10
2022-08-30T17:01:46.543Z,4.00
2022-08-30T17:04:18.379Z,1.63
2022-08-30T17:06:49.535Z,1.25
2022-08-30T17:09:19.326Z,1.30
2022-08-30T17:11:47.702Z,1.40
2022-08-30T17:14:16.352Z,1.33
2022-08-30T17:16:50.358Z,1.70
2022-08-30T17:19:18.605Z,1.30
2022-08-30T17:21:54.147Z,1.52
2022-08-30T17:24:21.169Z,1.08
2022-08-30T17:26:49.003Z,1.20
2022-08-30T17:29:16.420Z,1.20
2022-08-30T17:31:46.448Z,1.42
2022-08-30T17:34:22.237Z,1.20
2022-08-30T17:37:02.429Z,1.52
2022-08-30T17:39:31.421Z,1.33
2022-08-30T17:41:58.715Z,1.27
2022-08-30T17:44:30.731Z,1.30
2022-08-30T17:47:00.047Z,1.30
2022-08-30T17:49:29.396Z,1.30
2022-08-30T17:51:59.064Z,1.50
2022-08-30T17:54:29.505Z,1.60
2022-08-30T17:56:58.440Z,1.30
2022-08-30T17:59:26.963Z,1.30
2022-08-30T18:01:58.739Z,1.13
2022-08-30T18:04:26.229Z,1.08
2022-08-30T18:06:55.136Z,0.75
2022-08-30T18:09:23.081Z,0.90
2022-08-30T18:11:50.758Z,0.82
2022-08-30T18:14:18.338Z,0.75
2022-08-30T18:16:49.975Z,0.90
2022-08-30T18:19:33.082Z,0.80
2022-08-30T18:22:00.376Z,0.80
2022-08-30T18:24:31.522Z,0.80
2022-08-30T18:26:58.744Z,0.93
2022-08-30T18:29:26.280Z,0.93
2022-08-30T18:31:58.398Z,0.88
2022-08-30T18:34:25.500Z,0.82
2022-08-30T18:36:52.943Z,0.85
2022-08-30T18:39:21.827Z,0.98
2022-08-30T18:41:50.967Z,0.85
2022-08-30T18:44:28.422Z,0.93
2022-08-30T18:46:58.209Z,0.87
2022-08-30T18:49:32.396Z,1.20
2022-08-30T18:52:02.241Z,1.00
2022-08-30T18:54:30.210Z,0.90
2022-08-30T18:56:57.559Z,1.23
2022-08-30T18:59:35.490Z,1.05
2022-08-30T19:02:09.456Z,1.20
2022-08-30T19:04:37.142Z,1.20
2022-08-30T19:07:08.197Z,1.00
2022-08-30T19:09:36.870Z,1.20
2022-08-30T19:12:09.662Z,0.90
2022-08-30T19:14:38.663Z,0.90
2022-08-30T19:17:07.039Z,0.68
2022-08-30T19:19:35.224Z,0.90
2022-08-30T19:22:04.718Z,0.90
2022-08-30T19:24:31.748Z,0.83
2022-08-30T19:26:59.567Z,0.90
2022-08-30T19:29:26.643Z,1.00
2022-08-30T19:31:53.814Z,0.80
2022-08-30T19:34:21.478Z,0.90
2022-08-30T19:36:49.050Z,0.80
2022-08-30T19:39:16.517Z,0.70
2022-08-30T19:41:44.598Z,0.80
2022-08-30T19:44:11.727Z,0.70
2022-08-30T19:46:38.706Z,0.67
2022-08-30T19:49:08.453Z,0.68
2022-08-30T19:51:39.558Z,0.77
2022-08-30T19:54:15.144Z,0.60
2022-08-30T19:56:42.223Z,0.80
2022-08-30T19:59:09.421Z,1.00
2022-08-30T20:01:37.767Z,0.90
2022-08-30T20:04:05.007Z,0.80
2022-08-30T20:06:33.337Z,0.70
2022-08-30T20:09:01.061Z,0.57
2022-08-30T20:11:29.610Z,0.60
2022-08-30T20:14:02.770Z,0.53
2022-08-30T20:16:36.098Z,0.80
2022-08-30T20:19:10.650Z,0.70
2022-08-30T20:21:38.820Z,0.67
2022-08-30T20:24:09.649Z,1.07
2022-08-30T20:26:38.760Z,0.60
2022-08-30T20:29:08.963Z,0.50
2022-08-30T20:31:36.647Z,0.63
2022-08-30T20:34:05.190Z,0.50
2022-08-30T20:36:33.944Z,0.50
2022-08-30T20:39:02.128Z,0.50
2022-08-30T20:41:30.679Z,0.57
2022-08-30T20:43:58.472Z,0.40
2022-08-30T20:46:26.441Z,0.50
2022-08-30T20:49:01.713Z,0.60
2022-08-30T20:51:29.396Z,0.50
2022-08-30T20:53:58.374Z,0.70
2022-08-30T20:56:27.753Z,0.50
2022-08-30T20:59:10.218Z,0.93
2022-08-30T21:01:38.967Z,0.50
2022-08-30T21:04:08.448Z,0.50
2022-08-30T21:06:37.573Z,0.50
2022-08-30T21:09:08.711Z,0.70
2022-08-30T21:11:37.514Z,0.60
2022-08-30T21:14:05.568Z,0.60
2022-08-30T21:16:33.304Z,0.60
2022-08-30T21:19:01.341Z,0.50
2022-08-30T21:21:30.606Z,0.50
2022-08-30T21:24:10.119Z,0.60
2022-08-30T21:26:42.924Z,0.50
2022-08-30T21:29:11.343Z,0.47
2022-08-30T21:31:38.787Z,0.40
2022-08-30T21:34:13.214Z,0.60
2022-08-30T21:36:45.688Z,0.60
2022-08-30T21:39:27.560Z,0.67
2022-08-30T21:41:56.914Z,0.57
2022-08-30T21:44:27.401Z,0.60
2022-08-30T21:46:55.474Z,0.30
2022-08-30T21:49:24.340Z,0.40
2022-08-30T21:51:54.694Z,0.47
2022-08-30T21:54:23.732Z,0.40
2022-08-30T21:56:54.212Z,0.37
2022-08-30T21:59:24.890Z,0.53
2022-08-30T22:01:52.125Z,0.80
2022-08-30T22:04:22.009Z,0.40
2022-08-30T22:06:53.776Z,0.50
2022-08-30T22:09:25.044Z,0.50
2022-08-30T22:11:53.506Z,0.50
2022-08-30T22:14:22.646Z,0.60
2022-08-30T22:16:50.084Z,0.60
2022-08-30T22:19:22.950Z,0.70
2022-08-30T22:21:51.556Z,0.50
2022-08-30T22:24:19.010Z,0.60
2022-08-30T22:26:47.403Z,0.53
2022-08-30T22:29:14.878Z,0.40
2022-08-30T22:31:43.587Z,0.40
2022-08-30T22:34:11.431Z,0.50
2022-08-30T22:36:39.066Z,0.37
2022-08-30T22:39:08.879Z,0.60
2022-08-30T22:41:37.137Z,0.60
2022-08-30T22:44:05.023Z,0.50
2022-08-30T22:46:34.018Z,0.50
2022-08-30T22:49:05.312Z,0.60
2022-08-30T22:51:33.649Z,0.50
2022-08-30T22:54:02.328Z,0.40
2022-08-30T22:56:30.756Z,0.60
2022-08-30T22:58:58.099Z,0.50
2022-08-30T23:01:39.097Z,0.63
2022-08-30T23:04:09.466Z,0.77
2022-08-30T23:06:36.943Z,0.60
2022-08-30T23:09:06.819Z,0.50
2022-08-30T23:11:34.186Z,0.67
2022-08-30T23:14:03.748Z,0.47
2022-08-30T23:16:32.396Z,0.60
2022-08-30T23:18:59.860Z,0.37
2022-08-30T23:21:30.256Z,0.60
2022-08-30T23:24:17.944Z,0.70
2022-08-30T23:27:04.839Z,0.40
2022-08-30T23:29:52.118Z,0.50
2022-08-30T23:32:38.988Z,0.63
2022-08-30T23:35:29.921Z,0.60
2022-08-30T23:38:23.264Z,0.70
2022-08-30T23:41:08.682Z,0.73
2022-08-30T23:43:55.699Z,0.70
2022-08-30T23:46:42.146Z,0.70
2022-08-30T23:49:27.770Z,0.57
2022-08-30T23:52:13.869Z,0.50
2022-08-30T23:54:59.873Z,0.73
2022-08-30T23:57:45.754Z,0.70
